sensor_id;sensor_type;location;lat;lon;timestamp;temperature;humidity
3256;DHT22;1640;48.504;9.224;2022-12-15T00:01:40;-0.80;99.90
3256;DHT22;1640;48.504;9.224;2022-12-15T00:04:24;-0.80;99.90
3256;DHT22;1640;48.504;9.224;2022-12-15T00:07:09;-0.80;99.90
3256;DHT22;1640;48.504;9.224;2022-12-15T00:09:53;-0.80;99.90
3256;DHT22;1640;48.504;9.224;2022-12-15T00:12:39;-0.70;99.90
3256;DHT22;1640;48.504;9.224;2022-12-15T00:15:24;-0.70;99.90
3256;DHT22;1640;48.504;9.224;2022-12-15T00:18:09;-0.70;99.90
3256;DHT22;1640;48.504;9.224;2022-12-15T00:20:56;-0.80;99.90
3256;DHT22;1640;48.504;9.224;2022-12-15T00:23:41;-0.80;99.90
3256;DHT22;1640;48.504;9.224;2022-12-15T00:26:26;-0.80;99.90
3256;DHT22;1640;48.504;9.224;2022-12-15T00:29:12;-0.80;99.90
3256;DHT22;1640;48.504;9.224;2022-12-15T00:31:57;-0.80;99.90
3256;DHT22;1640;48.504;9.224;2022-12-15T00:34:41;-0.80;99.90
3256;DHT22;1640;48.504;9.224;2022-12-15T00:37:26;-0.80;99.90
3256;DHT22;1640;48.504;9.224;2022-12-15T00:40:12;-0.80;99.90
3256;DHT22;1640;48.504;9.224;2022-12-15T00:42:39;-0.80;99.90
3256;DHT22;1640;48.504;9.224;2022-12-15T00:45:09;-0.80;99.90
3256;DHT22;1640;48.504;9.224;2022-12-15T00:47:37;-0.80;99.90
3256;DHT22;1640;48.504;9.224;2022-12-15T00:50:04;-0.80;99.90
3256;DHT22;1640;48.504;9.224;2022-12-15T00:52:49;-0.80;99.90
3256;DHT22;1640;48.504;9.224;2022-12-15T00:55:33;-0.80;99.90
3256;DHT22;1640;48.504;9.224;2022-12-15T00:58:18;-0.70;99.90
3256;DHT22;1640;48.504;9.224;2022-12-15T01:01:06;-0.60;99.90
3256;DHT22;1640;48.504;9.224;2022-12-15T01:03:52;-0.60;99.90
3256;DHT22;1640;48.504;9.224;2022-12-15T01:06:37;-0.60;99.90
3256;DHT22;1640;48.504;9.224;2022-12-15T01:09:22;-0.60;99.90
3256;DHT22;1640;48.504;9.224;2022-12-15T01:12:07;-0.70;99.90
3256;DHT22;1640;48.504;9.224;2022-12-15T01:14:52;-0.70;99.90
3256;DHT22;1640;48.504;9.224;2022-12-15T01:17:38;-0.70;99.90
3256;DHT22;1640;48.504;9.224;2022-12-15T01:20:23;-0.70;99.90
3256;DHT22;1640;48.504;9.224;2022-12-15T01:22:53;-0.80;99.90
3256;DHT22;1640;48.504;9.224;2022-12-15T01:25:22;-0.80;99.90
3256;DHT22;1640;48.504;9.224;2022-12-15T01:27:50;-0.80;99.90
3256;DHT22;1640;48.504;9.224;2022-12-15T01:30:19;-0.80;99.90
3256;DHT22;1640;48.504;9.224;2022-12-15T01:32:49;-0.80;99.90
3256;DHT22;1640;48.504;9.224;2022-12-15T01:35:17;-0.80;99.90
3256;DHT22;1640;48.504;9.224;2022-12-15T01:37:45;-0.90;99.90
3256;DHT22;1640;48.504;9.224;2022-12-15T01:40:14;-1.00;99.90
3256;DHT22;1640;48.504;9.224;2022-12-15T01:42:59;-1.00;99.90
3256;DHT22;1640;48.504;9.224;2022-12-15T01:45:46;-1.00;99.90
3256;DHT22;1640;48.504;9.224;2022-12-15T01:48:19;-1.00;99.90
3256;DHT22;1640;48.504;9.224;2022-12-15T01:50:55;-1.00;99.90
3256;DHT22;1640;48.504;9.224;2022-12-15T01:53:23;-1.00;99.90
3256;DHT22;1640;48.504;9.224;2022-12-15T01:55:52;-1.00;99.90
3256;DHT22;1640;48.504;9.224;2022-12-15T01:58:19;-1.00;99.90
3256;DHT22;1640;48.504;9.224;2022-12-15T02:00:48;-1.00;99.90
3256;DHT22;1640;48.504;9.224;2022-12-15T02:03:17;-1.00;99.90
3256;DHT22;1640;48.504;9.224;2022-12-15T02:05:45;-1.00;99.90
3256;DHT22;1640;48.504;9.224;2022-12-15T02:08:13;-0.90;99.90
3256;DHT22;1640;48.504;9.224;2022-12-15T02:10:50;-0.90;99.90
3256;DHT22;1640;48.504;9.224;2022-12-15T02:13:27;-0.80;99.90
3256;DHT22;1640;48.504;9.224;2022-12-15T02:16:02;-0.80;99.90
3256;DHT22;1640;48.504;9.224;2022-12-15T02:18:36;-0.80;99.90
3256;DHT22;1640;48.504;9.224;2022-12-15T02:21:10;-0.70;99.90
3256;DHT22;1640;48.504;9.224;2022-12-15T02:27:32;-0.80;99.90
3256;DHT22;1640;48.504;9.224;2022-12-15T02:30:17;-0.80;99.90
3256;DHT22;1640;48.504;9.224;2022-12-15T02:32:57;-0.80;99.90
3256;DHT22;1640;48.504;9.224;2022-12-15T02:35:34;-0.90;99.90
3256;DHT22;1640;48.504;9.224;2022-12-15T02:38:02;-0.90;99.90
3256;DHT22;1640;48.504;9.224;2022-12-15T02:40:30;-0.90;99.90
3256;DHT22;1640;48.504;9.224;2022-12-15T02:42:58;-0.90;99.90
3256;DHT22;1640;48.504;9.224;2022-12-15T02:45:33;-1.00;99.90
3256;DHT22;1640;48.504;9.224;2022-12-15T02:48:11;-1.00;99.90
3256;DHT22;1640;48.504;9.224;2022-12-15T02:51:04;-1.00;99.90
3256;DHT22;1640;48.504;9.224;2022-12-15T02:53:51;-1.00;99.90
3256;DHT22;1640;48.504;9.224;2022-12-15T02:56:26;-1.00;99.90
3256;DHT22;1640;48.504;9.224;2022-12-15T02:59:03;-1.00;99.90
3256;DHT22;1640;48.504;9.224;2022-12-15T03:01:37;-1.00;99.90
3256;DHT22;1640;48.504;9.224;2022-12-15T03:04:08;-0.90;99.90
3256;DHT22;1640;48.504;9.224;2022-12-15T03:06:35;-1.00;99.90
3256;DHT22;1640;48.504;9.224;2022-12-15T03:09:03;-1.00;99.90
3256;DHT22;1640;48.504;9.224;2022-12-15T03:11:30;-0.90;99.90
3256;DHT22;1640;48.504;9.224;2022-12-15T03:13:58;-0.90;99.90
3256;DHT22;1640;48.504;9.224;2022-12-15T03:16:25;-0.90;99.90
3256;DHT22;1640;48.504;9.224;2022-12-15T03:18:54;-0.90;99.90
3256;DHT22;1640;48.504;9.224;2022-12-15T03:21:21;-0.90;99.90
3256;DHT22;1640;48.504;9.224;2022-12-15T03:23:49;-0.90;99.90
3256;DHT22;1640;48.504;9.224;2022-12-15T03:26:16;-1.00;99.90
3256;DHT22;1640;48.504;9.224;2022-12-15T03:28:44;-0.90;99.90
3256;DHT22;1640;48.504;9.224;2022-12-15T03:31:11;-0.90;99.90
3256;DHT22;1640;48.504;9.224;2022-12-15T03:33:39;-0.90;99.90
3256;DHT22;1640;48.504;9.224;2022-12-15T03:36:08;-0.90;99.90
3256;DHT22;1640;48.504;9.224;2022-12-15T03:38:36;-0.90;99.90
3256;DHT22;1640;48.504;9.224;2022-12-15T03:41:03;-0.80;99.90
3256;DHT22;1640;48.504;9.224;2022-12-15T03:43:31;-1.00;99.90
3256;DHT22;1640;48.504;9.224;2022-12-15T03:45:58;-0.90;99.90
3256;DHT22;1640;48.504;9.224;2022-12-15T03:48:26;-0.90;99.90
3256;DHT22;1640;48.504;9.224;2022-12-15T03:50:53;-0.90;99.90
3256;DHT22;1640;48.504;9.224;2022-12-15T03:53:22;-0.90;99.90
3256;DHT22;1640;48.504;9.224;2022-12-15T03:55:49;-0.90;99.90
3256;DHT22;1640;48.504;9.224;2022-12-15T03:58:17;-0.90;99.90
3256;DHT22;1640;48.504;9.224;2022-12-15T04:00:44;-0.90;99.90
3256;DHT22;1640;48.504;9.224;2022-12-15T04:03:12;-0.90;99.90
3256;DHT22;1640;48.504;9.224;2022-12-15T04:05:39;-0.80;99.90
3256;DHT22;1640;48.504;9.224;2022-12-15T04:08:07;-0.80;99.90
3256;DHT22;1640;48.504;9.224;2022-12-15T04:10:35;-0.90;99.90
3256;DHT22;1640;48.504;9.224;2022-12-15T04:13:05;-1.00;99.90
3256;DHT22;1640;48.504;9.224;2022-12-15T04:15:33;-0.90;99.90
3256;DHT22;1640;48.504;9.224;2022-12-15T04:18:01;-0.90;99.90
3256;DHT22;1640;48.504;9.224;2022-12-15T04:20:30;-0.90;99.90
3256;DHT22;1640;48.504;9.224;2022-12-15T04:22:58;-1.00;99.90
3256;DHT22;1640;48.504;9.224;2022-12-15T04:25:26;-1.00;99.90
3256;DHT22;1640;48.504;9.224;2022-12-15T04:28:13;-1.00;99.90
3256;DHT22;1640;48.504;9.224;2022-12-15T04:31:00;-1.00;99.90
3256;DHT22;1640;48.504;9.224;2022-12-15T04:33:48;-1.10;99.90
3256;DHT22;1640;48.504;9.224;2022-12-15T04:36:36;-1.10;99.90
3256;DHT22;1640;48.504;9.224;2022-12-15T04:39:22;-1.10;99.90
3256;DHT22;1640;48.504;9.224;2022-12-15T04:42:07;-1.00;99.90
3256;DHT22;1640;48.504;9.224;2022-12-15T04:44:56;-1.00;99.90
3256;DHT22;1640;48.504;9.224;2022-12-15T04:47:41;-1.00;99.90
3256;DHT22;1640;48.504;9.224;2022-12-15T04:50:26;-1.00;99.90
3256;DHT22;1640;48.504;9.224;2022-12-15T04:53:12;-1.00;99.90
3256;DHT22;1640;48.504;9.224;2022-12-15T04:55:57;-1.00;99.90
3256;DHT22;1640;48.504;9.224;2022-12-15T04:58:42;-1.10;99.90
3256;DHT22;1640;48.504;9.224;2022-12-15T05:01:29;-1.10;99.90
3256;DHT22;1640;48.504;9.224;2022-12-15T05:04:14;-1.10;99.90
3256;DHT22;1640;48.504;9.224;2022-12-15T05:06:58;-1.10;99.90
3256;DHT22;1640;48.504;9.224;2022-12-15T05:09:43;-1.00;99.90
3256;DHT22;1640;48.504;9.224;2022-12-15T05:12:28;-1.00;99.90
3256;DHT22;1640;48.504;9.224;2022-12-15T05:15:13;-1.00;99.90
3256;DHT22;1640;48.504;9.224;2022-12-15T05:17:59;-1.00;99.90
3256;DHT22;1640;48.504;9.224;2022-12-15T05:20:44;-1.10;99.90
3256;DHT22;1640;48.504;9.224;2022-12-15T05:23:28;-1.10;99.90
3256;DHT22;1640;48.504;9.224;2022-12-15T05:26:13;-1.10;99.90
3256;DHT22;1640;48.504;9.224;2022-12-15T05:28:58;-1.10;99.90
3256;DHT22;1640;48.504;9.224;2022-12-15T05:31:42;-1.10;99.90
3256;DHT22;1640;48.504;9.224;2022-12-15T05:34:20;-1.10;99.90
3256;DHT22;1640;48.504;9.224;2022-12-15T05:36:48;-1.10;99.90
3256;DHT22;1640;48.504;9.224;2022-12-15T05:39:15;-1.10;99.90
3256;DHT22;1640;48.504;9.224;2022-12-15T05:41:43;-1.00;99.90
3256;DHT22;1640;48.504;9.224;2022-12-15T05:44:11;-1.00;99.90
3256;DHT22;1640;48.504;9.224;2022-12-15T05:46:38;-1.00;99.90
3256;DHT22;1640;48.504;9.224;2022-12-15T05:49:07;-1.00;99.90
3256;DHT22;1640;48.504;9.224;2022-12-15T05:51:39;-0.90;99.90
3256;DHT22;1640;48.504;9.224;2022-12-15T05:54:06;-0.90;99.90
3256;DHT22;1640;48.504;9.224;2022-12-15T05:56:34;-0.90;99.90
3256;DHT22;1640;48.504;9.224;2022-12-15T05:59:02;-0.90;99.90
3256;DHT22;1640;48.504;9.224;2022-12-15T06:01:30;-0.90;99.90
3256;DHT22;1640;48.504;9.224;2022-12-15T06:03:58;-0.90;99.90
3256;DHT22;1640;48.504;9.224;2022-12-15T06:06:26;-0.80;99.90
3256;DHT22;1640;48.504;9.224;2022-12-15T06:08:55;-0.90;99.90
3256;DHT22;1640;48.504;9.224;2022-12-15T06:11:23;-0.90;99.90
3256;DHT22;1640;48.504;9.224;2022-12-15T06:13:51;-0.90;99.90
3256;DHT22;1640;48.504;9.224;2022-12-15T06:16:20;-0.90;99.90
3256;DHT22;1640;48.504;9.224;2022-12-15T06:18:49;-0.80;99.90
3256;DHT22;1640;48.504;9.224;2022-12-15T06:21:18;-0.80;99.90
3256;DHT22;1640;48.504;9.224;2022-12-15T06:23:46;-0.80;99.90
3256;DHT22;1640;48.504;9.224;2022-12-15T06:26:18;-0.80;99.90
3256;DHT22;1640;48.504;9.224;2022-12-15T06:28:46;-0.80;99.90
3256;DHT22;1640;48.504;9.224;2022-12-15T06:31:14;-0.80;99.90
3256;DHT22;1640;48.504;9.224;2022-12-15T06:33:43;-0.90;99.90
3256;DHT22;1640;48.504;9.224;2022-12-15T06:36:12;-0.90;99.90
3256;DHT22;1640;48.504;9.224;2022-12-15T06:38:40;-1.00;99.90
3256;DHT22;1640;48.504;9.224;2022-12-15T06:41:09;-1.00;99.90
3256;DHT22;1640;48.504;9.224;2022-12-15T06:43:38;-1.00;99.90
3256;DHT22;1640;48.504;9.224;2022-12-15T06:46:06;-1.00;99.90
3256;DHT22;1640;48.504;9.224;2022-12-15T06:48:35;-1.00;99.90
3256;DHT22;1640;48.504;9.224;2022-12-15T06:51:03;-1.00;99.90
3256;DHT22;1640;48.504;9.224;2022-12-15T06:53:31;-1.00;99.90
3256;DHT22;1640;48.504;9.224;2022-12-15T06:55:59;-0.90;99.90
3256;DHT22;1640;48.504;9.224;2022-12-15T06:58:27;-0.90;99.90
3256;DHT22;1640;48.504;9.224;2022-12-15T07:00:57;-0.90;99.90
3256;DHT22;1640;48.504;9.224;2022-12-15T07:03:24;-1.00;99.90
3256;DHT22;1640;48.504;9.224;2022-12-15T07:06:01;-1.00;99.90
3256;DHT22;1640;48.504;9.224;2022-12-15T07:08:28;-1.00;99.90
3256;DHT22;1640;48.504;9.224;2022-12-15T07:10:56;-1.00;99.90
3256;DHT22;1640;48.504;9.224;2022-12-15T07:13:24;-0.90;99.90
3256;DHT22;1640;48.504;9.224;2022-12-15T07:15:51;-1.00;99.90
3256;DHT22;1640;48.504;9.224;2022-12-15T07:18:20;-1.00;99.90
3256;DHT22;1640;48.504;9.224;2022-12-15T07:20:48;-0.90;99.90
3256;DHT22;1640;48.504;9.224;2022-12-15T07:23:15;-0.90;99.90
3256;DHT22;1640;48.504;9.224;2022-12-15T07:25:42;-0.90;99.90
3256;DHT22;1640;48.504;9.224;2022-12-15T07:28:10;-0.90;99.90
3256;DHT22;1640;48.504;9.224;2022-12-15T07:30:38;-0.90;99.90
3256;DHT22;1640;48.504;9.224;2022-12-15T07:33:05;-0.90;99.90
3256;DHT22;1640;48.504;9.224;2022-12-15T07:35:34;-0.80;99.90
3256;DHT22;1640;48.504;9.224;2022-12-15T07:38:05;-0.80;99.90
3256;DHT22;1640;48.504;9.224;2022-12-15T07:40:32;-0.70;99.90
3256;DHT22;1640;48.504;9.224;2022-12-15T07:43:00;-0.70;99.90
3256;DHT22;1640;48.504;9.224;2022-12-15T07:45:27;-0.60;99.90
3256;DHT22;1640;48.504;9.224;2022-12-15T07:47:54;-0.70;99.90
3256;DHT22;1640;48.504;9.224;2022-12-15T07:50:22;-0.70;99.90
3256;DHT22;1640;48.504;9.224;2022-12-15T07:52:51;-0.60;99.90
3256;DHT22;1640;48.504;9.224;2022-12-15T07:55:18;-0.60;99.90
3256;DHT22;1640;48.504;9.224;2022-12-15T07:57:46;-0.60;99.90
3256;DHT22;1640;48.504;9.224;2022-12-15T08:00:15;-0.50;99.90
3256;DHT22;1640;48.504;9.224;2022-12-15T08:02:42;-0.50;99.90
3256;DHT22;1640;48.504;9.224;2022-12-15T08:05:10;-0.30;99.90
3256;DHT22;1640;48.504;9.224;2022-12-15T08:07:37;-0.20;99.90
3256;DHT22;1640;48.504;9.224;2022-12-15T08:10:07;-0.30;99.90
3256;DHT22;1640;48.504;9.224;2022-12-15T08:12:34;-0.30;99.90
3256;DHT22;1640;48.504;9.224;2022-12-15T08:15:02;-0.30;99.90
3256;DHT22;1640;48.504;9.224;2022-12-15T08:17:29;-0.20;99.90
3256;DHT22;1640;48.504;9.224;2022-12-15T08:19:57;-0.10;99.90
3256;DHT22;1640;48.504;9.224;2022-12-15T08:22:24;0.00;99.90
3256;DHT22;1640;48.504;9.224;2022-12-15T08:24:52;0.10;99.90
3256;DHT22;1640;48.504;9.224;2022-12-15T08:27:20;0.30;99.90
3256;DHT22;1640;48.504;9.224;2022-12-15T08:29:49;0.40;99.90
3256;DHT22;1640;48.504;9.224;2022-12-15T08:32:16;0.40;99.90
3256;DHT22;1640;48.504;9.224;2022-12-15T08:34:44;0.50;99.90
3256;DHT22;1640;48.504;9.224;2022-12-15T08:37:12;0.60;99.90
3256;DHT22;1640;48.504;9.224;2022-12-15T08:39:40;0.60;99.90
3256;DHT22;1640;48.504;9.224;2022-12-15T08:42:07;0.80;99.90
3256;DHT22;1640;48.504;9.224;2022-12-15T08:44:36;0.90;99.90
3256;DHT22;1640;48.504;9.224;2022-12-15T08:47:04;0.90;99.90
3256;DHT22;1640;48.504;9.224;2022-12-15T08:49:32;1.10;99.90
3256;DHT22;1640;48.504;9.224;2022-12-15T08:51:59;1.10;99.90
3256;DHT22;1640;48.504;9.224;2022-12-15T08:54:26;1.30;99.90
3256;DHT22;1640;48.504;9.224;2022-12-15T08:56:54;1.30;99.90
3256;DHT22;1640;48.504;9.224;2022-12-15T08:59:21;1.20;99.90
3256;DHT22;1640;48.504;9.224;2022-12-15T09:01:50;1.30;99.90
3256;DHT22;1640;48.504;9.224;2022-12-15T09:04:17;1.10;3.70
3256;DHT22;1640;48.504;9.224;2022-12-15T09:06:45;0.90;1.30
3256;DHT22;1640;48.504;9.224;2022-12-15T09:09:12;0.80;99.90
3256;DHT22;1640;48.504;9.224;2022-12-15T09:11:40;0.60;99.90
3256;DHT22;1640;48.504;9.224;2022-12-15T09:14:07;0.60;99.90
3256;DHT22;1640;48.504;9.224;2022-12-15T09:16:35;0.70;99.90
3256;DHT22;1640;48.504;9.224;2022-12-15T09:19:04;0.70;99.90
3256;DHT22;1640;48.504;9.224;2022-12-15T09:21:32;0.90;99.90
3256;DHT22;1640;48.504;9.224;2022-12-15T09:24:00;1.10;99.90
3256;DHT22;1640;48.504;9.224;2022-12-15T09:26:29;1.20;99.90
3256;DHT22;1640;48.504;9.224;2022-12-15T09:28:58;1.20;99.90
3256;DHT22;1640;48.504;9.224;2022-12-15T09:31:29;1.30;99.90
3256;DHT22;1640;48.504;9.224;2022-12-15T09:33:58;1.30;0.50
3256;DHT22;1640;48.504;9.224;2022-12-15T09:36:28;1.40;2.80
3256;DHT22;1640;48.504;9.224;2022-12-15T09:38:57;1.30;99.90
3256;DHT22;1640;48.504;9.224;2022-12-15T09:41:29;1.40;99.90
3256;DHT22;1640;48.504;9.224;2022-12-15T09:43:59;1.40;99.90
3256;DHT22;1640;48.504;9.224;2022-12-15T09:52:26;1.70;6.00
3256;DHT22;1640;48.504;9.224;2022-12-15T09:54:54;1.80;8.00
3256;DHT22;1640;48.504;9.224;2022-12-15T09:57:32;1.80;11.50
3256;DHT22;1640;48.504;9.224;2022-12-15T10:00:12;1.70;16.30
3256;DHT22;1640;48.504;9.224;2022-12-15T10:03:03;1.60;11.40
3256;DHT22;1640;48.504;9.224;2022-12-15T10:05:41;1.60;2.50
3256;DHT22;1640;48.504;9.224;2022-12-15T10:08:14;1.50;1.00
3256;DHT22;1640;48.504;9.224;2022-12-15T10:10:45;1.50;1.90
3256;DHT22;1640;48.504;9.224;2022-12-15T10:13:17;1.40;5.60
3256;DHT22;1640;48.504;9.224;2022-12-15T10:15:52;1.10;3.30
3256;DHT22;1640;48.504;9.224;2022-12-15T10:18:25;1.10;99.90
3256;DHT22;1640;48.504;9.224;2022-12-15T10:20:54;1.00;99.90
3256;DHT22;1640;48.504;9.224;2022-12-15T10:23:24;1.10;99.90
3256;DHT22;1640;48.504;9.224;2022-12-15T10:25:58;1.10;99.90
3256;DHT22;1640;48.504;9.224;2022-12-15T10:31:29;1.20;99.90
3256;DHT22;1640;48.504;9.224;2022-12-15T10:34:07;1.00;99.90
3256;DHT22;1640;48.504;9.224;2022-12-15T10:36:36;1.00;99.90
3256;DHT22;1640;48.504;9.224;2022-12-15T10:39:05;0.90;99.90
3256;DHT22;1640;48.504;9.224;2022-12-15T10:41:32;1.00;99.90
3256;DHT22;1640;48.504;9.224;2022-12-15T10:44:00;1.00;99.90
3256;DHT22;1640;48.504;9.224;2022-12-15T10:46:29;1.10;99.90
3256;DHT22;1640;48.504;9.224;2022-12-15T10:48:58;1.10;99.90
3256;DHT22;1640;48.504;9.224;2022-12-15T10:51:28;1.00;99.90
3256;DHT22;1640;48.504;9.224;2022-12-15T10:54:07;1.10;99.90
3256;DHT22;1640;48.504;9.224;2022-12-15T10:56:46;1.10;99.90
3256;DHT22;1640;48.504;9.224;2022-12-15T10:59:23;1.30;99.90
3256;DHT22;1640;48.504;9.224;2022-12-15T11:01:51;1.30;99.90
3256;DHT22;1640;48.504;9.224;2022-12-15T11:04:25;1.40;99.90
3256;DHT22;1640;48.504;9.224;2022-12-15T11:06:56;1.50;99.90
3256;DHT22;1640;48.504;9.224;2022-12-15T11:09:32;1.60;99.90
3256;DHT22;1640;48.504;9.224;2022-12-15T11:12:00;1.70;99.90
3256;DHT22;1640;48.504;9.224;2022-12-15T11:14:48;1.80;99.90
3256;DHT22;1640;48.504;9.224;2022-12-15T11:17:17;2.00;99.90
3256;DHT22;1640;48.504;9.224;2022-12-15T11:19:50;2.00;11.00
3256;DHT22;1640;48.504;9.224;2022-12-15T11:22:22;2.10;7.30
3256;DHT22;1640;48.504;9.224;2022-12-15T11:25:00;2.20;17.90
3256;DHT22;1640;48.504;9.224;2022-12-15T11:27:32;2.10;16.50
3256;DHT22;1640;48.504;9.224;2022-12-15T11:30:10;2.00;15.20
3256;DHT22;1640;48.504;9.224;2022-12-15T11:32:41;2.10;14.50
3256;DHT22;1640;48.504;9.224;2022-12-15T11:35:11;2.30;15.20
3256;DHT22;1640;48.504;9.224;2022-12-15T11:37:41;2.20;22.70
3256;DHT22;1640;48.504;9.224;2022-12-15T11:40:37;2.20;9.40
3256;DHT22;1640;48.504;9.224;2022-12-15T11:43:18;2.40;11.40
3256;DHT22;1640;48.504;9.224;2022-12-15T11:45:59;2.20;14.50
3256;DHT22;1640;48.504;9.224;2022-12-15T11:48:34;2.30;17.30
3256;DHT22;1640;48.504;9.224;2022-12-15T11:51:05;2.30;13.10
3256;DHT22;1640;48.504;9.224;2022-12-15T11:53:57;2.30;11.80
3256;DHT22;1640;48.504;9.224;2022-12-15T11:56:32;2.40;13.10
3256;DHT22;1640;48.504;9.224;2022-12-15T11:59:27;2.30;14.60
3256;DHT22;1640;48.504;9.224;2022-12-15T12:05:16;2.50;15.80
3256;DHT22;1640;48.504;9.224;2022-12-15T12:07:48;2.50;21.70
3256;DHT22;1640;48.504;9.224;2022-12-15T12:10:30;2.60;20.10
3256;DHT22;1640;48.504;9.224;2022-12-15T12:13:12;2.50;23.30
3256;DHT22;1640;48.504;9.224;2022-12-15T12:15:50;2.40;16.20
3256;DHT22;1640;48.504;9.224;2022-12-15T12:18:23;2.60;10.20
3256;DHT22;1640;48.504;9.224;2022-12-15T12:20:55;2.70;16.30
3256;DHT22;1640;48.504;9.224;2022-12-15T12:23:30;2.80;19.60
3256;DHT22;1640;48.504;9.224;2022-12-15T12:26:03;3.00;20.50
3256;DHT22;1640;48.504;9.224;2022-12-15T12:28:42;3.00;22.70
3256;DHT22;1640;48.504;9.224;2022-12-15T12:31:20;3.00;26.00
3256;DHT22;1640;48.504;9.224;2022-12-15T12:33:51;2.80;28.40
3256;DHT22;1640;48.504;9.224;2022-12-15T12:36:20;2.80;26.20
3256;DHT22;1640;48.504;9.224;2022-12-15T12:38:51;2.70;23.60
3256;DHT22;1640;48.504;9.224;2022-12-15T12:41:29;2.50;19.00
3256;DHT22;1640;48.504;9.224;2022-12-15T12:44:09;2.40;14.90
3256;DHT22;1640;48.504;9.224;2022-12-15T12:46:42;2.40;9.40
3256;DHT22;1640;48.504;9.224;2022-12-15T12:49:15;2.30;10.50
3256;DHT22;1640;48.504;9.224;2022-12-15T12:51:50;2.20;4.60
3256;DHT22;1640;48.504;9.224;2022-12-15T12:54:39;1.90;99.90
3256;DHT22;1640;48.504;9.224;2022-12-15T12:57:34;1.80;99.90
3256;DHT22;1640;48.504;9.224;2022-12-15T13:00:22;1.60;99.90
3256;DHT22;1640;48.504;9.224;2022-12-15T13:02:55;1.60;99.90
3256;DHT22;1640;48.504;9.224;2022-12-15T13:05:36;1.60;99.90
3256;DHT22;1640;48.504;9.224;2022-12-15T13:08:24;1.50;99.90
3256;DHT22;1640;48.504;9.224;2022-12-15T13:10:52;1.40;99.90
3256;DHT22;1640;48.504;9.224;2022-12-15T13:13:44;1.30;99.90
3256;DHT22;1640;48.504;9.224;2022-12-15T13:16:18;1.40;99.90
3256;DHT22;1640;48.504;9.224;2022-12-15T13:18:59;1.40;99.90
3256;DHT22;1640;48.504;9.224;2022-12-15T13:21:53;1.40;99.90
3256;DHT22;1640;48.504;9.224;2022-12-15T13:24:31;1.50;99.90
3256;DHT22;1640;48.504;9.224;2022-12-15T13:27:11;1.50;99.90
3256;DHT22;1640;48.504;9.224;2022-12-15T13:30:00;1.60;99.90
3256;DHT22;1640;48.504;9.224;2022-12-15T13:32:33;1.50;99.90
3256;DHT22;1640;48.504;9.224;2022-12-15T13:35:16;1.60;99.90
3256;DHT22;1640;48.504;9.224;2022-12-15T13:37:50;1.70;99.90
3256;DHT22;1640;48.504;9.224;2022-12-15T13:40:26;1.60;99.90
3256;DHT22;1640;48.504;9.224;2022-12-15T13:43:01;1.60;99.90
3256;DHT22;1640;48.504;9.224;2022-12-15T13:45:45;1.60;99.90
3256;DHT22;1640;48.504;9.224;2022-12-15T13:51:08;1.60;99.90
3256;DHT22;1640;48.504;9.224;2022-12-15T13:53:39;1.50;99.90
3256;DHT22;1640;48.504;9.224;2022-12-15T13:56:38;1.50;99.90
3256;DHT22;1640;48.504;9.224;2022-12-15T13:59:13;1.50;99.90
3256;DHT22;1640;48.504;9.224;2022-12-15T14:01:48;1.40;99.90
3256;DHT22;1640;48.504;9.224;2022-12-15T14:04:18;1.50;99.90
3256;DHT22;1640;48.504;9.224;2022-12-15T14:06:47;1.60;99.90
3256;DHT22;1640;48.504;9.224;2022-12-15T14:09:20;1.60;99.90
3256;DHT22;1640;48.504;9.224;2022-12-15T14:11:49;1.60;99.90
3256;DHT22;1640;48.504;9.224;2022-12-15T14:14:19;1.60;99.90
3256;DHT22;1640;48.504;9.224;2022-12-15T14:16:55;1.60;99.90
3256;DHT22;1640;48.504;9.224;2022-12-15T14:19:25;1.60;99.90
3256;DHT22;1640;48.504;9.224;2022-12-15T14:21:55;1.70;99.90
3256;DHT22;1640;48.504;9.224;2022-12-15T14:24:27;1.70;99.90
3256;DHT22;1640;48.504;9.224;2022-12-15T14:26:55;1.70;99.90
3256;DHT22;1640;48.504;9.224;2022-12-15T14:29:23;1.60;99.90
3256;DHT22;1640;48.504;9.224;2022-12-15T14:31:53;1.60;99.90
3256;DHT22;1640;48.504;9.224;2022-12-15T14:34:29;1.60;99.90
3256;DHT22;1640;48.504;9.224;2022-12-15T14:36:58;1.40;99.90
3256;DHT22;1640;48.504;9.224;2022-12-15T14:39:32;1.30;99.90
3256;DHT22;1640;48.504;9.224;2022-12-15T14:42:02;1.30;99.90
3256;DHT22;1640;48.504;9.224;2022-12-15T14:44:33;1.30;99.90
3256;DHT22;1640;48.504;9.224;2022-12-15T14:47:03;1.20;99.90
3256;DHT22;1640;48.504;9.224;2022-12-15T14:49:38;1.10;99.90
3256;DHT22;1640;48.504;9.224;2022-12-15T14:52:19;1.10;99.90
3256;DHT22;1640;48.504;9.224;2022-12-15T14:54:51;1.20;99.90
3256;DHT22;1640;48.504;9.224;2022-12-15T14:57:23;1.10;99.90
3256;DHT22;1640;48.504;9.224;2022-12-15T14:59:50;1.10;99.90
3256;DHT22;1640;48.504;9.224;2022-12-15T15:02:20;1.20;99.90
3256;DHT22;1640;48.504;9.224;2022-12-15T15:04:57;1.10;99.90
3256;DHT22;1640;48.504;9.224;2022-12-15T15:07:28;1.10;99.90
3256;DHT22;1640;48.504;9.224;2022-12-15T15:09:56;1.10;99.90
3256;DHT22;1640;48.504;9.224;2022-12-15T15:12:27;0.90;99.90
3256;DHT22;1640;48.504;9.224;2022-12-15T15:15:02;0.90;99.90
3256;DHT22;1640;48.504;9.224;2022-12-15T15:17:34;0.90;99.90
3256;DHT22;1640;48.504;9.224;2022-12-15T15:20:06;0.80;99.90
3256;DHT22;1640;48.504;9.224;2022-12-15T15:22:42;0.90;99.90
3256;DHT22;1640;48.504;9.224;2022-12-15T15:25:34;1.00;99.90
3256;DHT22;1640;48.504;9.224;2022-12-15T15:28:12;0.90;99.90
3256;DHT22;1640;48.504;9.224;2022-12-15T15:30:43;0.90;99.90
3256;DHT22;1640;48.504;9.224;2022-12-15T15:33:10;0.90;99.90
3256;DHT22;1640;48.504;9.224;2022-12-15T15:35:41;0.90;99.90
3256;DHT22;1640;48.504;9.224;2022-12-15T15:38:16;0.80;99.90
3256;DHT22;1640;48.504;9.224;2022-12-15T15:40:48;0.80;99.90
3256;DHT22;1640;48.504;9.224;2022-12-15T15:43:16;0.80;99.90
3256;DHT22;1640;48.504;9.224;2022-12-15T15:45:45;0.70;99.90
3256;DHT22;1640;48.504;9.224;2022-12-15T15:48:16;0.80;99.90
3256;DHT22;1640;48.504;9.224;2022-12-15T15:50:47;0.90;99.90
3256;DHT22;1640;48.504;9.224;2022-12-15T15:53:17;0.90;99.90
3256;DHT22;1640;48.504;9.224;2022-12-15T15:55:47;0.90;99.90
3256;DHT22;1640;48.504;9.224;2022-12-15T15:58:16;0.90;99.90
3256;DHT22;1640;48.504;9.224;2022-12-15T16:00:43;1.00;99.90
3256;DHT22;1640;48.504;9.224;2022-12-15T16:03:11;0.90;99.90
3256;DHT22;1640;48.504;9.224;2022-12-15T16:05:39;0.90;99.90
3256;DHT22;1640;48.504;9.224;2022-12-15T16:08:13;0.90;99.90
3256;DHT22;1640;48.504;9.224;2022-12-15T16:10:43;0.90;99.90
3256;DHT22;1640;48.504;9.224;2022-12-15T16:13:14;0.90;99.90
3256;DHT22;1640;48.504;9.224;2022-12-15T16:15:42;0.80;99.90
3256;DHT22;1640;48.504;9.224;2022-12-15T16:18:09;0.80;99.90
3256;DHT22;1640;48.504;9.224;2022-12-15T16:20:38;0.90;99.90
3256;DHT22;1640;48.504;9.224;2022-12-15T16:23:13;0.80;99.90
3256;DHT22;1640;48.504;9.224;2022-12-15T16:25:42;0.90;99.90
3256;DHT22;1640;48.504;9.224;2022-12-15T16:28:11;0.90;99.90
3256;DHT22;1640;48.504;9.224;2022-12-15T16:30:40;0.90;99.90
3256;DHT22;1640;48.504;9.224;2022-12-15T16:33:08;0.90;99.90
3256;DHT22;1640;48.504;9.224;2022-12-15T16:35:36;0.90;99.90
3256;DHT22;1640;48.504;9.224;2022-12-15T16:38:04;0.90;99.90
3256;DHT22;1640;48.504;9.224;2022-12-15T16:40:36;0.80;99.90
3256;DHT22;1640;48.504;9.224;2022-12-15T16:43:11;0.70;99.90
3256;DHT22;1640;48.504;9.224;2022-12-15T16:45:42;0.70;99.90
3256;DHT22;1640;48.504;9.224;2022-12-15T16:48:11;0.70;99.90
3256;DHT22;1640;48.504;9.224;2022-12-15T16:50:40;0.80;99.90
3256;DHT22;1640;48.504;9.224;2022-12-15T16:53:13;0.80;99.90
3256;DHT22;1640;48.504;9.224;2022-12-15T16:55:43;0.70;99.90
3256;DHT22;1640;48.504;9.224;2022-12-15T16:58:13;0.70;99.90
3256;DHT22;1640;48.504;9.224;2022-12-15T17:00:43;0.60;99.90
3256;DHT22;1640;48.504;9.224;2022-12-15T17:03:12;0.60;99.90
3256;DHT22;1640;48.504;9.224;2022-12-15T17:05:41;0.60;99.90
3256;DHT22;1640;48.504;9.224;2022-12-15T17:08:17;0.60;99.90